Time;durP1;ratioP1;P1;durP2;ratioP2;P2;SDS_P1;SDS_P2;PMS_P1;PMS_P2;Temp;Humidity;BMP_temperature;BMP_pressure;BME280_temperature;BME280_humidity;BME280_pressure;Samples;Min_cycle;Max_cycle;Signal;HPM_P1;HPM_P2
2023/10/07 00:00:47;;;;;;;13.98;1.63;;;17.50;99.90;;;16.52;100.00;100585.97;6159124;23;20495;-79
2023/10/07 00:03:15;;;;;;;2.92;1.58;;;17.50;99.90;;;16.54;100.00;100592.00;6159489;23;20084;-79
2023/10/07 00:05:42;;;;;;;3.90;1.35;;;17.50;99.90;;;16.54;100.00;100578.72;6132246;23;20005;-78
2023/10/07 00:08:12;;;;;;;3.58;1.40;;;17.50;99.90;;;16.55;100.00;100586.59;6133384;23;20011;-79
2023/10/07 00:10:40;;;;;;;3.80;1.23;;;17.50;99.90;;;16.52;100.00;100583.31;6158490;23;20005;-78
2023/10/07 00:13:09;;;;;;;3.92;1.55;;;17.50;99.90;;;16.53;100.00;100587.66;6132112;23;20009;-78
2023/10/07 00:15:47;;;;;;;5.40;1.52;;;17.60;99.90;;;16.52;100.00;100589.50;6131676;23;20020;-79
2023/10/07 00:18:13;;;;;;;5.53;1.50;;;17.50;99.90;;;16.48;100.00;100596.00;6133879;23;20016;-78
2023/10/07 00:20:48;;;;;;;5.63;2.28;;;17.50;99.90;;;16.45;100.00;100585.56;6156383;23;20459;-79
2023/10/07 00:23:26;;;;;;;5.53;1.58;;;17.50;99.90;;;16.39;100.00;100578.03;6132714;23;20017;-78
2023/10/07 00:26:00;;;;;;;3.30;1.33;;;17.40;99.90;;;16.31;100.00;100583.09;6133867;23;20005;-78
2023/10/07 00:28:32;;;;;;;8.35;1.80;;;17.30;99.90;;;16.28;100.00;100578.81;6156483;23;20005;-79
2023/10/07 00:31:05;;;;;;;4.38;1.60;;;17.30;99.90;;;16.23;100.00;100588.94;6133091;23;20008;-78
2023/10/07 00:33:49;;;;;;;4.57;2.10;;;17.30;99.90;;;16.28;100.00;100592.09;6131814;23;20005;-79
2023/10/07 00:36:25;;;;;;;6.35;2.15;;;17.30;99.90;;;16.29;100.00;100595.63;6159164;23;20009;-79
2023/10/07 00:38:54;;;;;;;4.38;1.90;;;17.30;99.90;;;16.29;100.00;100590.31;6133120;23;20005;-79
2023/10/07 00:41:23;;;;;;;4.15;2.03;;;17.30;99.90;;;16.29;100.00;100592.97;6131648;23;20600;-79
2023/10/07 00:43:53;;;;;;;3.40;1.83;;;17.30;99.90;;;16.24;100.00;100587.13;6131951;23;20021;-79
2023/10/07 00:46:28;;;;;;;5.25;1.95;;;17.20;99.90;;;16.17;100.00;100578.75;6155974;23;20009;-79
2023/10/07 00:49:00;;;;;;;6.55;2.42;;;17.10;99.90;;;16.12;100.00;100583.56;6132892;23;20067;-79
2023/10/07 00:51:36;;;;;;;5.65;2.50;;;17.10;99.90;;;16.03;100.00;100576.28;6132307;23;20470;-80
2023/10/07 00:54:18;;;;;;;4.90;2.45;;;17.10;99.90;;;16.04;100.00;100581.44;6174113;23;20104;-80
2023/10/07 00:57:07;;;;;;;6.28;2.30;;;17.00;99.90;;;15.95;100.00;100567.03;6180105;23;20471;-79
2023/10/07 00:59:41;;;;;;;3.78;1.95;;;17.00;99.90;;;15.92;100.00;100561.94;6183271;23;20012;-80
2023/10/07 01:02:14;;;;;;;3.78;2.00;;;17.00;99.90;;;15.92;100.00;100571.72;6156752;23;20012;-81
2023/10/07 01:04:48;;;;;;;3.08;1.90;;;17.00;99.90;;;15.92;100.00;100564.59;6180673;23;20028;-79
2023/10/07 01:07:19;;;;;;;3.97;1.80;;;16.90;99.90;;;15.94;100.00;100572.47;6154635;23;20036;-80
2023/10/07 01:12:51;;;;;;;4.78;1.65;;;17.00;99.90;;;15.92;100.00;100574.38;6168652;23;20043;-79
2023/10/07 01:15:22;;;;;;;4.47;1.55;;;17.00;99.90;;;15.93;100.00;100568.09;6180169;23;20064;-80
2023/10/07 01:17:54;;;;;;;8.32;1.63;;;17.00;99.90;;;15.99;100.00;100573.81;6156469;23;20001;-79
2023/10/07 01:21:11;;;;;;;4.88;1.63;;;17.00;99.90;;;16.03;100.00;100563.84;6156644;23;20012;-80
2023/10/07 01:23:16;;;;;;;8.63;1.58;;;17.00;99.90;;;16.03;100.00;100568.31;6171995;23;20490;-80
2023/10/07 01:25:50;;;;;;;5.90;1.42;;;17.00;99.90;;;16.05;100.00;100566.38;6185023;23;20420;-79
2023/10/07 01:28:17;;;;;;;3.05;1.45;;;17.00;99.90;;;16.08;100.00;100569.66;6184999;23;20127;-79
2023/10/07 01:33:39;;;;;;;3.63;1.75;;;17.10;99.90;;;16.08;100.00;100559.03;6164318;23;20031;-79
2023/10/07 01:36:18;;;;;;;2.22;1.08;;;17.10;99.90;;;16.05;100.00;100563.72;6129310;23;20009;-80
2023/10/07 01:38:48;;;;;;;1.13;0.95;;;17.00;99.90;;;15.99;100.00;100541.94;6129449;23;20096;-79
2023/10/07 01:41:21;;;;;;;2.13;1.13;;;16.90;99.90;;;15.96;100.00;100531.56;6128572;23;20429;-80
2023/10/07 01:44:00;;;;;;;3.35;1.00;;;16.90;99.90;;;15.88;100.00;100535.72;6153893;23;20041;-79
2023/10/07 01:46:28;;;;;;;1.92;0.80;;;16.90;99.90;;;15.90;100.00;100552.41;6130981;23;20001;-79
2023/10/07 01:49:00;;;;;;;2.47;1.10;;;17.00;99.90;;;15.95;100.00;100552.91;6104339;23;20092;-79
2023/10/07 01:51:28;;;;;;;2.15;1.15;;;16.90;99.90;;;15.97;100.00;100558.97;6130654;23;20006;-80
2023/10/07 01:54:08;;;;;;;3.17;1.15;;;17.00;99.90;;;15.99;100.00;100557.03;6128900;23;20009;-79
2023/10/07 01:56:34;;;;;;;3.17;1.30;;;17.00;99.90;;;15.94;100.00;100561.84;6160513;23;20004;-79
2023/10/07 02:01:45;;;;;;;1.23;1.13;;;17.00;99.90;;;16.00;100.00;100553.41;6163321;23;20005;-80
2023/10/07 02:04:18;;;;;;;1.92;1.00;;;17.00;99.90;;;16.00;100.00;100548.09;6134456;23;20019;-79
2023/10/07 02:06:54;;;;;;;4.18;1.08;;;17.00;99.90;;;16.03;100.00;100553.22;6134663;23;20011;-78
2023/10/07 02:09:36;;;;;;;;;;;17.00;99.90;;;15.99;100.00;100557.03;6184343;23;20001;-79
2023/10/07 02:12:09;;;;;;;3.55;1.15;;;17.00;99.90;;;15.97;100.00;100558.97;6137288;22;19908;-79
2023/10/07 02:14:38;;;;;;;3.10;0.80;;;17.00;99.90;;;15.90;100.00;100553.25;6135095;23;20016;-79
2023/10/07 02:17:08;;;;;;;1.90;1.00;;;17.00;99.90;;;15.91;100.00;100552.28;6133508;23;20063;-78
2023/10/07 02:19:33;;;;;;;2.13;0.90;;;16.90;99.90;;;15.96;100.00;100554.59;6159082;23;20009;-79
2023/10/07 02:22:06;;;;;;;0.70;0.60;;;17.00;99.90;;;15.96;100.00;100551.94;6134425;23;20015;-79
2023/10/07 02:24:36;;;;;;;1.58;0.85;;;16.90;99.90;;;15.87;100.00;100563.22;6158952;23;20049;-78
2023/10/07 02:27:19;;;;;;;2.25;0.80;;;17.00;99.90;;;15.89;100.00;100556.00;6157826;23;20012;-79
2023/10/07 02:29:51;;;;;;;3.15;0.90;;;17.00;99.90;;;15.94;100.00;100551.22;6135556;23;20443;-78
2023/10/07 02:32:17;;;;;;;2.53;0.70;;;16.90;99.90;;;15.91;100.00;100556.72;6159249;23;20036;-78
2023/10/07 02:34:57;;;;;;;2.25;0.90;;;17.00;99.90;;;15.92;100.00;100547.81;6157399;23;20032;-79
2023/10/07 02:37:30;;;;;;;2.10;0.70;;;17.00;99.90;;;15.93;100.00;100558.31;6133547;23;20347;-79
2023/10/07 02:40:04;;;;;;;3.88;0.85;;;17.00;99.90;;;15.97;100.00;100565.09;6158466;23;20009;-79
2023/10/07 02:42:35;;;;;;;5.57;1.10;;;17.00;99.90;;;15.96;100.00;100573.19;6158077;23;20001;-79
2023/10/07 02:47:47;;;;;;;3.17;0.65;;;17.00;99.90;;;15.93;100.00;100568.09;6160928;23;20324;-79
2023/10/07 02:50:13;;;;;;;4.78;1.15;;;17.00;99.90;;;15.89;100.00;100583.38;6132385;23;20012;-79
2023/10/07 02:52:46;;;;;;;3.00;1.08;;;17.00;99.90;;;15.94;100.00;100569.81;6155977;23;20015;-79
2023/10/07 02:57:58;;;;;;;7.28;1.17;;;17.10;99.90;;;16.02;100.00;100567.44;6157713;23;20013;-80
2023/10/07 03:00:29;;;;;;;5.32;1.30;;;17.10;99.90;;;16.06;100.00;100579.53;6133223;23;20043;-79
2023/10/07 03:03:18;;;;;;;7.47;0.98;;;17.10;99.90;;;16.05;100.00;100591.13;6132193;23;20382;-79
2023/10/07 03:05:58;;;;;;;5.35;1.02;;;17.10;99.90;;;16.02;100.00;100586.03;6160149;23;20005;-80
2023/10/07 03:08:40;;;;;;;12.05;1.83;;;17.10;99.90;;;16.06;100.00;100573.38;6159313;23;20001;-79
2023/10/07 03:11:11;;;;;;;10.55;1.90;;;17.10;99.90;;;16.02;100.00;100585.19;6159937;23;20001;-79
2023/10/07 03:13:49;;;;;;;13.18;2.25;;;17.10;99.90;;;16.01;100.00;100584.34;6177069;23;20073;-79
2023/10/07 03:18:54;;;;;;;20.95;2.42;;;17.10;99.90;;;15.96;100.00;100592.63;6186613;23;20012;-79
2023/10/07 03:21:21;;;;;;;18.08;2.20;;;17.10;99.90;;;15.93;100.00;100599.97;6162940;23;20099;-79
2023/10/07 03:23:48;;;;;;;11.77;2.47;;;17.10;99.90;;;15.88;100.00;100607.41;6186591;23;20008;-79
2023/10/07 03:26:18;;;;;;;9.95;2.00;;;17.00;99.90;;;15.85;100.00;100603.16;6212312;23;20005;-79
2023/10/07 03:28:51;;;;;;;14.95;2.80;;;17.00;99.90;;;15.84;100.00;100600.63;6161104;23;20029;-78
2023/10/07 03:31:20;;;;;;;15.30;2.58;;;17.00;99.90;;;15.85;100.00;100607.63;6162945;23;20032;-79
2023/10/07 03:33:58;;;;;;;20.75;3.03;;;17.00;99.90;;;15.87;100.00;100608.34;6212039;23;20095;-79
2023/10/07 03:37:16;;;;;;;17.02;2.63;;;17.00;99.90;;;15.86;100.00;100602.22;6163217;23;20015;-78
2023/10/07 03:41:55;;;;;;;16.65;2.30;;;16.90;99.90;;;15.74;100.00;100617.22;6186627;23;20032;-79
2023/10/07 03:44:26;;;;;;;15.18;2.65;;;16.90;99.90;;;15.71;100.00;100617.41;6163087;23;20004;-79
2023/10/07 03:46:55;;;;;;;14.68;3.03;;;16.90;99.90;;;15.78;100.00;100616.00;6187419;23;20004;-79
2023/10/07 03:49:22;;;;;;;11.93;2.17;;;16.90;99.90;;;15.75;100.00;100628.66;6160491;23;20008;-78
2023/10/07 03:51:58;;;;;;;23.13;3.30;;;16.80;99.90;;;15.73;100.00;100622.63;6161452;23;20324;-79
2023/10/07 03:54:29;;;;;;;18.85;3.40;;;16.80;99.90;;;15.62;99.67;100623.31;6162693;23;20727;-79
2023/10/07 03:57:00;;;;;;;25.27;3.03;;;16.80;99.90;;;15.59;99.06;100627.06;6161825;23;20047;-79
2023/10/07 03:59:34;;;;;;;21.58;3.30;;;16.70;99.90;;;15.53;99.00;100631.94;6160654;23;20097;-78
2023/10/07 04:02:04;;;;;;;19.00;3.00;;;16.70;99.90;;;15.57;98.47;100630.75;6188001;23;20455;-78
2023/10/07 04:04:30;;;;;;;16.67;3.22;;;16.70;99.90;;;15.55;98.07;100638.81;6161394;23;20008;-78
2023/10/07 04:07:00;;;;;;;25.38;3.63;;;16.70;99.90;;;15.59;98.02;100648.28;6211766;23;20009;-78
2023/10/07 04:11:59;;;;;;;21.10;2.75;;;;;;;15.55;97.31;100645.91;6180685;23;20032;-78
2023/10/07 04:14:35;;;;;;;18.13;2.90;;;16.70;99.90;;;15.54;96.80;100654.84;6155372;23;20019;-78
2023/10/07 04:17:06;;;;;;;20.02;3.10;;;16.60;99.90;;;15.52;96.81;100644.31;6133892;23;20458;-79
2023/10/07 04:19:38;;;;;;;21.70;3.28;;;16.60;99.90;;;15.51;96.46;100655.91;6132533;23;20008;-78
2023/10/07 04:22:07;;;;;;;22.55;2.95;;;16.60;99.90;;;15.46;96.53;100654.50;6132566;23;20005;-78
2023/10/07 04:24:35;;;;;;;24.25;3.42;;;16.60;99.90;;;15.38;96.20;100647.09;6131539;23;20079;-78
2023/10/07 04:27:18;;;;;;;22.65;3.17;;;16.60;99.90;;;15.37;96.19;100651.53;6131275;23;20352;-79
2023/10/07 04:29:52;;;;;;;21.75;2.92;;;16.50;99.90;;;15.26;96.60;100664.66;6134880;23;20005;-78
2023/10/07 04:32:23;;;;;;;21.15;3.33;;;16.50;99.90;;;15.30;96.59;100655.56;6131066;23;20458;-78
2023/10/07 04:35:19;;;;;;;28.58;3.58;;;16.40;99.90;;;15.22;96.66;100657.88;6131408;23;20032;-79
2023/10/07 04:37:47;;;;;;;17.33;3.50;;;16.40;99.90;;;15.25;96.60;100652.38;6136235;23;20040;-79
2023/10/07 04:45:49;;;;;;;31.15;4.57;;;16.30;99.90;;;15.18;95.85;100662.56;6100264;23;20009;-79
2023/10/07 04:48:40;;;;;;;29.48;3.85;;;16.30;99.90;;;15.17;95.55;100670.59;6120151;23;20012;-78
2023/10/07 04:51:12;;;;;;;26.60;3.47;;;16.30;99.90;;;15.11;95.12;100682.44;6075753;23;20009;-79
2023/10/07 04:53:39;;;;;;;28.33;3.50;;;16.20;99.90;;;15.05;95.74;100682.00;6095719;23;20034;-78
2023/10/07 04:56:20;;;;;;;14.23;3.20;;;16.20;99.90;;;15.02;95.69;100693.69;6094717;23;20056;-79
2023/10/07 04:58:52;;;;;;;21.45;3.35;;;16.20;99.90;;;14.92;94.90;100688.16;6073508;23;20006;-79
2023/10/07 05:01:33;;;;;;;24.75;3.78;;;16.10;99.90;;;14.87;95.53;100695.53;6095059;23;20017;-79
2023/10/07 05:04:04;;;;;;;36.08;4.30;;;16.00;99.90;;;14.82;95.57;100692.34;6098252;23;20010;-78
2023/10/07 05:06:37;;;;;;;28.58;3.38;;;16.00;99.90;;;14.82;95.37;100696.78;6118967;23;20006;-79
2023/10/07 05:09:18;;;;;;;30.80;4.13;;;16.00;99.90;;;14.79;95.59;100700.47;6096298;22;20006;-78
2023/10/07 05:11:45;;;;;;;37.78;5.07;;;16.00;99.90;;;14.74;96.08;100710.53;6157789;23;20017;-78
2023/10/07 05:14:11;;;;;;;20.20;3.42;;;16.00;99.90;;;14.71;96.40;100726.63;6180017;23;20453;-79
2023/10/07 05:16:38;;;;;;;27.48;3.63;;;15.90;99.90;;;14.68;96.86;100726.81;6180143;23;20039;-79
2023/10/07 05:19:09;;;;;;;27.67;4.70;;;15.90;99.90;;;14.70;97.08;100731.06;6180467;23;20088;-79
2023/10/07 05:21:38;;;;;;;20.60;3.67;;;15.80;99.90;;;14.65;96.91;100729.69;6155927;23;20085;-79
2023/10/07 05:24:09;;;;;;;24.30;3.85;;;15.80;99.90;;;14.60;97.24;100737.03;6156151;23;20440;-79
2023/10/07 05:26:35;;;;;;;28.98;4.28;;;15.80;99.90;;;14.56;96.50;100744.34;6156041;23;20055;-79
2023/10/07 05:29:01;;;;;;;25.33;3.83;;;15.80;99.90;;;14.49;96.79;100743.00;6154849;23;20450;-79
2023/10/07 05:31:30;;;;;;;25.10;3.63;;;15.70;99.90;;;14.45;96.42;100747.66;6155306;23;20129;-79
2023/10/07 05:34:06;;;;;;;36.20;5.05;;;15.70;99.90;;;14.47;96.29;100736.94;6155821;23;20005;-79
2023/10/07 05:36:32;;;;;;;35.47;4.53;;;15.60;99.90;;;14.38;95.54;100748.97;6156932;23;20016;-79
2023/10/07 05:39:00;;;;;;;33.03;4.93;;;15.60;99.90;;;14.35;94.98;100747.34;6155222;23;20107;-79
2023/10/07 05:41:29;;;;;;;26.38;3.42;;;15.60;99.90;;;14.38;94.77;100756.06;6182251;23;20012;-79
2023/10/07 05:43:55;;;;;;;36.83;4.22;;;15.60;99.90;;;14.34;95.07;100761.56;6156318;23;20006;-80
2023/10/07 05:46:21;;;;;;;25.67;3.85;;;15.50;99.90;;;14.33;94.99;100772.25;6155879;23;20124;-78
2023/10/07 05:48:47;;;;;;;30.20;4.40;;;15.50;99.90;;;14.31;95.30;100771.47;6155712;23;20012;-79
2023/10/07 05:51:13;;;;;;;33.97;3.67;;;15.50;99.90;;;14.24;95.13;100770.16;6155702;23;20005;-78
2023/10/07 05:53:48;;;;;;;29.73;3.65;;;15.50;99.90;;;14.26;94.74;100770.94;6155675;23;20498;-78
2023/10/07 05:56:14;;;;;;;33.38;3.55;;;15.50;99.90;;;14.26;94.26;100779.72;6156093;23;20017;-78
2023/10/07 05:58:40;;;;;;;28.08;4.25;;;15.50;99.90;;;14.27;94.02;100780.56;6155262;23;20013;-80
2023/10/07 06:01:11;;;;;;;23.95;2.95;;;15.50;99.90;;;14.22;93.38;100782.66;6155454;23;20009;-79
2023/10/07 06:03:39;;;;;;;22.40;3.60;;;15.40;99.90;;;14.22;93.09;100777.34;6156316;23;20030;-80
2023/10/07 06:06:06;;;;;;;31.02;4.95;;;15.40;99.90;;;14.26;92.30;100792.97;6156100;23;20097;-79
2023/10/07 06:08:32;;;;;;;26.75;3.80;;;15.50;99.90;;;14.26;92.15;100794.75;6130497;23;20055;-78
2023/10/07 06:10:59;;;;;;;26.73;3.63;;;15.50;99.90;;;14.27;92.00;100793.81;6131223;23;20005;-77
2023/10/07 06:13:26;;;;;;;21.25;3.30;;;15.40;99.90;;;14.26;92.00;100784.16;6156953;23;20012;-79
2023/10/07 06:15:57;;;;;;;27.67;4.07;;;15.50;99.90;;;14.28;91.70;100791.06;6157037;23;20055;-79
2023/10/07 06:18:25;;;;;;;26.83;4.20;;;15.50;99.90;;;14.27;91.78;100789.34;6155364;23;20016;-78
2023/10/07 06:20:52;;;;;;;33.67;4.38;;;15.50;99.90;;;14.33;92.69;100802.22;6157989;23;20036;-77
2023/10/07 06:23:20;;;;;;;24.42;3.80;;;15.50;99.90;;;14.32;92.32;100789.94;6158506;23;20016;-78
2023/10/07 06:25:51;;;;;;;23.45;3.42;;;15.50;99.90;;;14.27;92.88;100801.75;6183109;23;20005;-78
2023/10/07 06:34:02;;;;;;;28.33;4.22;;;15.50;99.90;;;14.28;93.19;100803.47;6160495;23;20351;-78
2023/10/07 06:36:31;;;;;;;26.00;3.40;;;15.40;99.90;;;14.27;94.03;100809.69;6158672;23;20469;-79
2023/10/07 06:39:01;;;;;;;29.33;3.92;;;15.40;99.90;;;14.31;93.90;100819.16;6183798;23;20012;-78
2023/10/07 06:41:29;;;;;;;32.85;3.70;;;15.50;99.90;;;14.32;93.67;100826.19;6159896;23;20009;-78
2023/10/07 06:44:08;;;;;;;27.50;4.00;;;15.50;99.90;;;14.35;93.84;100825.97;6157101;23;20011;-78
2023/10/07 06:46:41;;;;;;;41.28;4.63;;;15.50;99.90;;;14.37;93.65;100832.03;6158796;23;20009;-78
2023/10/07 06:49:20;;;;;;;33.17;4.18;;;15.50;99.90;;;14.41;93.77;100845.97;6158006;23;20011;-78
2023/10/07 06:51:53;;;;;;;27.27;3.53;;;15.50;99.90;;;14.31;94.08;100850.94;6158362;23;20001;-78
2023/10/07 06:54:32;;;;;;;30.80;4.85;;;15.50;99.90;;;14.30;94.13;100855.41;6132741;23;20017;-78
2023/10/07 06:57:01;;;;;;;31.27;4.07;;;15.50;99.90;;;14.36;93.87;100849.72;6157681;23;20009;-78
2023/10/07 06:59:27;;;;;;;20.20;3.08;;;15.50;99.90;;;14.37;94.21;100850.56;6132255;23;20040;-78
2023/10/07 07:01:55;;;;;;;25.30;3.58;;;15.50;99.90;;;14.31;94.74;100862.38;6157521;23;20419;-78
2023/10/07 07:04:22;;;;;;;26.55;3.78;;;15.50;99.90;;;14.42;95.04;100866.19;6156510;23;20084;-78
2023/10/07 07:12:21;;;;;;;33.03;4.28;;;15.60;99.90;;;14.42;94.70;100884.72;6163723;23;20021;-78
2023/10/07 07:14:50;;;;;;;26.75;4.18;;;15.60;99.90;;;14.46;95.39;100878.31;6158015;23;20020;-78
2023/10/07 07:17:30;;;;;;;22.52;3.72;;;15.60;99.90;;;14.43;95.29;100876.69;6132922;23;20015;-78
2023/10/07 07:22:45;;;;;;;26.52;4.00;;;15.60;99.90;;;14.45;96.26;100880.13;6165040;23;20013;-80
2023/10/07 07:27:52;;;;;;;34.47;4.82;;;15.60;99.90;;;14.59;96.14;100871.34;6149449;23;20017;-80
2023/10/07 07:30:20;;;;;;;37.35;5.10;;;15.70;99.90;;;14.56;95.99;100883.00;6125569;23;20478;-80
2023/10/07 07:32:58;;;;;;;30.45;4.57;;;15.70;99.90;;;14.64;95.99;100886.97;6125374;23;20396;-80
2023/10/07 07:35:42;;;;;;;32.15;4.90;;;15.70;99.90;;;14.64;95.31;100889.59;6126329;23;20452;-79
2023/10/07 07:38:34;;;;;;;28.73;4.45;;;15.80;99.90;;;14.64;94.68;100893.09;6149001;23;20017;-81
2023/10/07 07:41:09;;;;;;;34.33;4.82;;;15.80;99.90;;;14.62;93.27;100912.69;6130797;23;20457;-80
2023/10/07 07:43:39;;;;;;;33.03;4.95;;;15.80;99.90;;;14.61;92.25;100918.97;6100465;23;20005;-79
2023/10/07 07:48:45;;;;;;;40.40;5.05;;;15.80;99.90;;;14.71;92.04;100920.13;6126069;23;20013;-80
2023/10/07 07:51:17;;;;;;;41.60;4.82;;;15.80;99.90;;;14.77;91.99;100917.06;6125996;23;20009;-79
2023/10/07 07:53:48;;;;;;;26.85;3.92;;;15.90;99.90;;;14.81;91.02;100923.88;6127568;23;20014;-79
2023/10/07 07:56:15;;;;;;;41.63;4.78;;;15.90;99.90;;;14.85;89.74;100932.50;6124339;23;20005;-79
2023/10/07 07:58:41;;;;;;;30.38;3.90;;;15.90;99.90;;;14.74;89.51;100931.38;6117627;23;20051;-80
2023/10/07 08:01:18;;;;;;;39.63;4.50;;;16.00;99.90;;;14.89;89.71;100948.13;6156148;23;20406;-79
2023/10/07 08:03:44;;;;;;;;;;;15.90;99.90;;;14.76;88.67;100937.44;6158002;23;20451;-80
2023/10/07 08:06:19;;;;;;;31.08;3.92;;;15.90;99.90;;;14.71;87.94;100951.91;6184035;23;19955;-81
2023/10/07 08:08:49;;;;;;;29.58;4.63;;;15.90;99.90;;;14.67;87.20;100939.78;6159071;23;20079;-80
2023/10/07 08:11:17;;;;;;;26.65;4.00;;;15.90;99.90;;;14.78;87.59;100945.28;6132045;23;20009;-80
2023/10/07 08:13:48;;;;;;;31.13;3.85;;;16.00;99.90;;;15.02;87.41;100942.94;6157030;23;20012;-79
2023/10/07 08:16:20;;;;;;;25.92;5.18;;;16.10;99.90;;;15.07;86.73;100942.66;6132665;23;20005;-79
2023/10/07 08:18:54;;;;;;;26.63;3.78;;;16.20;99.90;;;15.15;87.34;100951.81;6157516;23;20011;-79
2023/10/07 08:21:28;;;;;;;28.67;3.85;;;16.30;99.90;;;15.23;86.61;100942.56;6157748;23;20462;-80
2023/10/07 08:23:57;;;;;;;25.73;4.20;;;16.30;99.90;;;15.18;86.51;100950.78;6133053;23;20321;-80
2023/10/07 08:26:26;;;;;;;30.85;4.65;;;16.40;99.90;;;15.30;86.53;100967.75;6157066;23;20005;-79
2023/10/07 08:29:01;;;;;;;26.67;3.50;;;16.40;99.90;;;15.27;86.56;100958.19;6131737;23;20732;-80
2023/10/07 08:31:50;;;;;;;33.20;4.30;;;16.30;99.90;;;15.13;85.65;100959.03;6134650;23;20024;-80
2023/10/07 08:34:15;;;;;;;37.03;4.35;;;16.20;99.90;;;15.12;86.05;100970.59;6159153;23;20087;-80
2023/10/07 08:36:43;;;;;;;36.95;4.40;;;16.20;99.90;;;15.05;86.49;100955.16;6131022;23;20590;-80
2023/10/07 08:39:09;;;;;;;26.70;4.63;;;16.20;99.90;;;15.07;86.77;100942.66;6155316;23;20001;-80
2023/10/07 08:41:52;;;;;;;30.30;4.57;;;16.20;99.90;;;15.14;86.77;100951.91;6154666;23;20432;-80
2023/10/07 08:44:21;;;;;;;25.05;3.55;;;16.20;99.90;;;15.05;86.57;100939.22;6134757;23;20075;-81
2023/10/07 08:46:54;;;;;;;38.38;4.15;;;16.30;99.90;;;15.16;86.52;100939.41;6156689;23;20009;-82
2023/10/07 08:49:34;;;;;;;26.25;4.05;;;16.20;99.90;;;15.13;86.34;100947.56;6132514;23;20009;-81
2023/10/07 08:52:08;;;;;;;20.85;3.35;;;16.20;99.90;;;15.12;85.97;100969.75;6158727;23;20031;-82
2023/10/07 08:54:44;;;;;;;28.92;3.97;;;16.20;99.90;;;15.10;86.16;100976.94;6157694;23;20538;-82
2023/10/07 08:57:22;;;;;;;35.53;4.40;;;16.20;99.90;;;15.16;85.72;100977.41;6156696;23;20032;-81
2023/10/07 08:59:59;;;;;;;18.30;3.80;;;16.20;99.90;;;15.10;85.51;100979.59;6134570;23;20241;-82
2023/10/07 09:02:26;;;;;;;31.20;4.35;;;16.20;99.90;;;15.11;85.42;100983.94;6134391;23;20088;-83
2023/10/07 09:05:08;;;;;;;25.67;3.97;;;16.30;99.90;;;15.23;84.39;100988.50;6156946;23;20009;-81
2023/10/07 09:07:48;;;;;;;27.55;4.15;;;16.30;99.90;;;15.20;83.75;100980.72;6132538;23;20009;-81
2023/10/07 09:10:16;;;;;;;21.42;3.80;;;16.30;99.90;;;15.20;82.83;100987.81;6135338;23;20016;-81
2023/10/07 09:12:56;;;;;;;29.95;4.25;;;16.30;99.90;;;15.14;83.02;100981.09;6156774;23;20009;-80
2023/10/07 09:15:34;;;;;;;28.50;4.57;;;16.30;99.90;;;15.11;82.87;100992.75;6135758;23;20708;-82
2023/10/07 09:18:04;;;;;;;33.05;4.70;;;16.20;99.90;;;14.91;82.01;100987.81;6159528;23;20017;-81
2023/10/07 09:20:31;;;;;;;25.23;4.47;;;16.20;99.90;;;14.93;82.42;100996.53;6133711;23;20032;-82
2023/10/07 09:23:15;;;;;;;20.92;3.72;;;16.10;99.90;;;14.88;83.10;100996.81;6156468;23;20013;-81
2023/10/07 09:25:46;;;;;;;24.33;3.70;;;16.10;99.90;;;14.81;81.65;100986.66;6160198;23;20009;-82
2023/10/07 09:28:13;;;;;;;28.08;4.28;;;16.00;99.90;;;14.78;81.53;101003.59;6133154;23;20016;-82
2023/10/07 09:30:48;;;;;;;18.55;3.17;;;15.90;99.90;;;14.52;80.73;100998.03;6158712;23;20009;-81
2023/10/07 09:33:21;;;;;;;23.20;4.65;;;15.80;99.90;;;14.57;80.84;100998.63;6160436;23;20015;-81
2023/10/07 09:36:35;;;;;;;26.60;4.03;;;15.80;99.90;;;14.54;81.04;101000.59;6159402;23;20009;-83
2023/10/07 09:38:41;;;;;;;28.63;4.72;;;15.80;99.90;;;14.57;81.05;100993.31;6148849;23;20016;-83
2023/10/07 09:41:23;;;;;;;34.80;5.20;;;15.80;99.90;;;14.65;80.75;100998.19;6158673;23;20005;-82
2023/10/07 09:43:56;;;;;;;21.60;4.07;;;15.80;99.90;;;14.61;81.36;100990.50;6134572;23;20016;-82
2023/10/07 09:46:25;;;;;;;24.88;4.32;;;15.80;99.90;;;14.57;81.28;100988.03;6159887;23;20044;-81
2023/10/07 09:49:03;;;;;;;34.65;4.50;;;15.70;99.90;;;14.57;81.67;100992.47;6161550;23;20039;-82
2023/10/07 09:51:47;;;;;;;23.05;3.83;;;;;;;14.63;81.20;100999.22;6161564;23;20005;-87
2023/10/07 09:54:47;;;;;;;25.88;4.13;;;;;;;14.69;81.12;100988.25;6155272;23;20006;-85
2023/10/07 10:01:39;;;;;;;29.90;3.83;;;15.80;99.90;;;14.58;80.43;100996.84;6153984;23;20012;-85
2023/10/07 10:05:06;;;;;;;28.60;4.13;;;15.70;99.90;;;14.50;79.91;101010.50;6063187;23;20003;-86
2023/10/07 10:10:59;;;;;;;34.53;4.80;;;;;;;14.54;80.67;100996.13;6065219;23;20066;-86
2023/10/07 10:14:29;;;;;;;27.25;4.18;;;15.80;99.90;;;14.67;81.50;100995.44;6037556;23;20019;-85
2023/10/07 10:17:11;;;;;;;26.05;3.45;;;;;;;14.64;81.23;100995.63;6040061;23;20105;-86
2023/10/07 10:20:14;;;;;;;24.10;4.85;;;15.70;99.90;;;14.67;81.84;101001.59;6007413;23;20561;-85
2023/10/07 10:26:23;;;;;;;29.40;4.65;;;;;;;14.71;82.82;100987.22;5920611;24;20028;-86
2023/10/07 10:29:25;;;;;;;34.10;5.15;;;15.80;99.90;;;14.77;82.84;100988.63;5924122;24;20028;-86
2023/10/07 10:32:23;;;;;;;30.05;3.83;;;15.80;99.90;;;14.68;82.22;100992.69;5924405;24;20017;-85
2023/10/07 10:38:22;;;;;;;29.30;3.80;;;;;;;14.69;82.89;100989.09;5804009;24;20008;-85
2023/10/07 10:40:57;;;;;;;26.60;4.13;;;;;;;14.72;82.90;100996.03;5815449;24;20042;-85
2023/10/07 10:43:32;;;;;;;30.52;5.10;;;;;;;14.77;82.86;100984.22;5843225;24;20010;-86
2023/10/07 10:46:10;;;;;;;32.00;4.80;;;15.80;99.90;;;14.84;83.61;100983.81;5843743;24;20025;-86
2023/10/07 10:48:53;;;;;;;32.95;4.70;;;15.80;99.90;;;14.82;83.57;100988.38;5842472;24;20101;-85
2023/10/07 10:51:46;;;;;;;39.35;4.70;;;15.90;99.90;;;14.96;83.72;100981.28;5889504;24;20431;-85
2023/10/07 10:54:42;;;;;;;29.48;4.45;;;16.00;99.90;;;15.04;83.81;100982.63;5894792;24;20010;-85
2023/10/07 10:57:23;;;;;;;38.15;4.22;;;;;;;15.02;83.48;100987.16;5870039;24;20021;-86
2023/10/07 11:00:11;;;;;;;34.50;5.13;;;;;;;14.89;84.03;100985.25;5931449;24;20013;-86
2023/10/07 11:02:40;;;;;;;26.02;4.40;;;;;;;15.04;84.27;100985.28;5966426;23;20036;-85
2023/10/07 11:05:21;;;;;;;34.38;4.95;;;16.00;99.90;;;15.05;84.54;100985.16;6016973;23;20018;-85
2023/10/07 11:08:04;;;;;;;33.88;5.07;;;;;;;15.04;84.45;100987.94;6033085;23;20446;-85
2023/10/07 11:10:46;;;;;;;36.08;4.80;;;;;;;15.08;84.55;100978.84;6036435;23;20015;-86
2023/10/07 11:13:34;;;;;;;37.65;5.10;;;;;;;15.07;84.97;100972.66;6032500;23;20086;-85
2023/10/07 11:20:08;;;;;;;32.72;4.72;;;16.00;99.90;;;14.98;84.86;100963.47;6152701;23;20021;-86
2023/10/07 11:23:15;;;;;;;29.65;4.63;;;16.00;99.90;;;14.87;81.98;100971.22;5978465;23;20015;-86
2023/10/07 11:28:33;;;;;;;30.27;4.35;;;;;;;14.87;82.29;100970.38;5953413;24;20031;-84
2023/10/07 11:31:24;;;;;;;30.42;4.80;;;;;;;14.74;81.59;100975.56;5951623;24;20067;-86
2023/10/07 11:33:53;;;;;;;27.13;4.25;;;;;;;14.71;80.64;100975.78;5950754;24;20008;-86
2023/10/07 11:36:19;;;;;;;31.98;4.03;;;15.80;99.90;;;14.74;81.04;100972.94;5950995;24;20012;-86
2023/10/07 11:41:41;;;;;;;35.03;4.85;;;15.80;99.90;;;15.00;81.43;100987.25;6162155;23;20340;-86
2023/10/07 11:44:36;;;;;;;25.92;4.78;;;;;;;14.95;80.15;100987.53;6130185;23;20344;-85
2023/10/07 11:47:36;;;;;;;30.80;4.45;;;15.90;99.90;;;14.88;79.07;100988.88;6151138;23;20009;-86
2023/10/07 11:50:23;;;;;;;31.30;4.78;;;;;;;14.86;78.47;100985.44;5986030;23;20039;-85